»·PEaware :: N21DA KTOA-KOAK

N21DA :: KTOA-KOAK

FLIGHT INFORMATION

Flight Status: Arrived
Operator: Privately registered:
United States
More flights under this callsign
Pilot: Dan A. (12711)
Aircraft: CESSNA 206 STATIONAIR
(C206)
More flights by this aircraft type
Origin: KTOA Zamperini
United States
Destination: KOAK Metro Oakland Intl
United States
More flights between these airports :: More routes between these airports
Route: +LAX170 LIMBO V64 SLI V23 GMN PXN V301 SUNOL
File this flight plan on PilotEdge
Remarks:
Altitude:
(Current/Filed)
10,000ft
Speed:
(Current/Filed)
180kts
Departed: 15-Aug-19 03:41 PM
Arrived: 15-Aug-19 05:50 PM
Distance/Time
Traveled:
302nm/2:09
Distance/Time
To Go:
Arrived

Flight Plot

Page will automatically refresh every two minutes.

Flight plan parsing failed; only flown route is shown


Map Options




Map Legend


Flown Route
Filed Route
Departure Airport
Arrival Airport
Navaid (VOR, NDB)
Fix

Horizontal Profiles

Position Reports

Time Latitude Longitude Heading Altitude Ground
Speed
15-Aug-19 15:32 33.796503 -118.332401 359 107ft 0kts
15-Aug-19 15:33 33.796503 -118.332401 359 107ft 0kts
15-Aug-19 15:34 33.796503 -118.332401 359 107ft 0kts
15-Aug-19 15:35 33.797778 -118.332430 263 107ft 3kts
15-Aug-19 15:36 33.797697 -118.333983 279 107ft 3kts
15-Aug-19 15:37 33.799096 -118.333338 37 107ft 0kts
15-Aug-19 15:38 33.799096 -118.333338 37 107ft 0kts
15-Aug-19 15:39 33.799102 -118.333333 37 107ft 0kts
15-Aug-19 15:40 33.806281 -118.339657 324 416ft 89kts
15-Aug-19 15:41 33.830891 -118.356178 288 1548ft 121kts
15-Aug-19 15:42 33.802899 -118.373653 182 2263ft 146kts
15-Aug-19 15:43 33.763172 -118.365199 160 2983ft 153kts
15-Aug-19 15:44 33.726511 -118.381894 159 3010ft 168kts
15-Aug-19 15:46 33.724315 -118.331830 70 3142ft 158kts
15-Aug-19 15:47 33.735757 -118.284284 75 3985ft 138kts
15-Aug-19 15:48 33.744754 -118.241683 76 5078ft 127kts
15-Aug-19 15:49 33.753156 -118.201103 76 6174ft 124kts
15-Aug-19 15:50 33.761404 -118.161160 76 7277ft 122kts
15-Aug-19 15:51 33.769532 -118.121753 76 8379ft 120kts
15-Aug-19 15:52 33.791746 -118.105574 309 9480ft 114kts
15-Aug-19 15:53 33.807463 -118.142415 296 10005ft 147kts
15-Aug-19 15:54 33.827714 -118.189038 297 10020ft 161kts
15-Aug-19 15:55 33.848651 -118.236950 297 10034ft 162kts
15-Aug-19 15:56 33.869589 -118.285094 297 10042ft 162kts
15-Aug-19 15:57 33.890503 -118.333262 297 10032ft 162kts
15-Aug-19 15:58 33.911471 -118.381612 297 10033ft 162kts
15-Aug-19 15:59 33.932999 -118.429161 313 10017ft 163kts
15-Aug-19 16:00 33.974051 -118.452089 338 10043ft 163kts
15-Aug-19 16:01 34.016236 -118.472562 337 10045ft 163kts
15-Aug-19 16:02 34.058384 -118.493155 337 10033ft 162kts
15-Aug-19 16:03 34.099970 -118.513506 337 10029ft 161kts
15-Aug-19 16:04 34.141734 -118.533964 337 10021ft 162kts
15-Aug-19 16:05 34.183506 -118.554445 337 10011ft 162kts
15-Aug-19 16:06 34.225488 -118.575052 337 10002ft 163kts
15-Aug-19 16:06 34.260690 -118.592340 337 10001ft 163kts
15-Aug-19 16:08 34.309843 -118.616556 337 10009ft 163kts
15-Aug-19 16:08 34.344846 -118.633789 337 10011ft 163kts
15-Aug-19 16:10 34.393139 -118.657590 337 10015ft 162kts
15-Aug-19 16:11 34.434992 -118.678240 337 10018ft 162kts
15-Aug-19 16:11 34.469878 -118.695473 337 10021ft 162kts
15-Aug-19 16:12 34.511583 -118.716090 337 10026ft 162kts
15-Aug-19 16:13 34.553301 -118.736741 337 10027ft 162kts
15-Aug-19 16:14 34.594694 -118.757259 337 10062ft 160kts
15-Aug-19 16:15 34.636017 -118.777784 337 10107ft 160kts
15-Aug-19 16:16 34.677789 -118.798513 337 10076ft 161kts
15-Aug-19 16:17 34.718802 -118.818905 337 10105ft 160kts
15-Aug-19 16:18 34.760261 -118.839545 337 10099ft 161kts
15-Aug-19 16:19 34.801869 -118.860371 333 10079ft 161kts
15-Aug-19 16:20 34.837221 -118.893638 321 10049ft 161kts
15-Aug-19 16:21 34.872317 -118.927796 321 10011ft 161kts
15-Aug-19 16:22 34.907444 -118.962014 320 9974ft 161kts
15-Aug-19 16:24 34.948185 -119.001768 320 10018ft 162kts
15-Aug-19 16:24 34.977838 -119.030717 320 9993ft 165kts
15-Aug-19 16:25 35.013887 -119.065992 320 9978ft 167kts
15-Aug-19 16:26 35.050224 -119.101578 320 9979ft 168kts
15-Aug-19 16:27 35.086661 -119.137265 320 9980ft 168kts
15-Aug-19 16:28 35.123287 -119.173199 320 9980ft 168kts
15-Aug-19 16:29 35.159767 -119.209038 320 9979ft 168kts
15-Aug-19 16:30 35.196071 -119.244745 320 9979ft 168kts
15-Aug-19 16:31 35.232557 -119.280674 320 9979ft 168kts
15-Aug-19 16:32 35.268906 -119.316509 320 9979ft 168kts
15-Aug-19 16:33 35.305259 -119.352392 320 9979ft 168kts
15-Aug-19 16:34 35.341659 -119.388364 320 9979ft 168kts
15-Aug-19 16:35 35.378049 -119.424371 320 9979ft 168kts
15-Aug-19 16:36 35.414058 -119.460040 320 10032ft 166kts
15-Aug-19 16:37 35.450220 -119.495895 320 10036ft 167kts
15-Aug-19 16:38 35.486411 -119.531890 321 10032ft 167kts
15-Aug-19 16:39 35.522698 -119.567927 321 10032ft 168kts
15-Aug-19 16:40 35.558987 -119.604038 321 10032ft 167kts
15-Aug-19 16:41 35.595149 -119.640074 321 10032ft 168kts
15-Aug-19 16:42 35.631628 -119.676474 320 10041ft 169kts
15-Aug-19 16:43 35.668219 -119.713042 321 10042ft 169kts
15-Aug-19 16:44 35.704876 -119.749691 320 10043ft 170kts
15-Aug-19 16:45 35.741529 -119.786398 320 10047ft 170kts
15-Aug-19 16:46 35.778171 -119.823136 320 10051ft 170kts
15-Aug-19 16:47 35.814929 -119.860038 320 10052ft 170kts
15-Aug-19 16:48 35.851505 -119.896803 320 10052ft 170kts
15-Aug-19 16:49 35.888235 -119.933766 320 10052ft 170kts
15-Aug-19 16:50 35.924778 -119.970589 320 10052ft 170kts
15-Aug-19 16:51 35.961417 -120.007555 320 10052ft 170kts
15-Aug-19 16:52 35.998068 -120.044577 320 10052ft 170kts
15-Aug-19 16:53 36.034696 -120.081621 320 10052ft 170kts
15-Aug-19 16:54 36.071547 -120.118935 320 10082ft 175kts
15-Aug-19 16:55 36.109853 -120.157775 320 10114ft 180kts
15-Aug-19 16:56 36.148924 -120.197445 320 10122ft 181kts
15-Aug-19 16:57 36.187915 -120.237085 320 10123ft 181kts
15-Aug-19 16:58 36.226860 -120.276732 320 10126ft 181kts
15-Aug-19 16:59 36.265932 -120.316512 320 10116ft 181kts
15-Aug-19 17:00 36.304774 -120.356320 320 10128ft 181kts
15-Aug-19 17:01 36.343839 -120.396260 320 10111ft 182kts
15-Aug-19 17:02 36.382904 -120.436410 320 10094ft 182kts
15-Aug-19 17:03 36.421158 -120.475536 321 10035ft 173kts
15-Aug-19 17:04 36.457777 -120.513011 320 10019ft 169kts
15-Aug-19 17:05 36.494005 -120.550216 321 10016ft 169kts
15-Aug-19 17:06 36.530251 -120.587412 320 10012ft 169kts
15-Aug-19 17:07 36.566436 -120.624552 320 10012ft 168kts
15-Aug-19 17:08 36.602145 -120.661221 319 10010ft 168kts
15-Aug-19 17:09 36.637986 -120.698444 319 10010ft 168kts
15-Aug-19 17:10 36.673843 -120.735671 319 10008ft 167kts
15-Aug-19 17:11 36.709638 -120.772477 319 10012ft 167kts
15-Aug-19 17:12 36.744353 -120.811006 316 10024ft 166kts
15-Aug-19 17:13 36.778258 -120.850086 316 10041ft 166kts
15-Aug-19 17:14 36.812436 -120.889242 317 10031ft 167kts
15-Aug-19 17:15 36.846446 -120.928221 317 10040ft 166kts
15-Aug-19 17:16 36.880384 -120.967171 317 10050ft 165kts
15-Aug-19 17:17 36.914293 -121.006116 317 10051ft 165kts
15-Aug-19 17:18 36.948078 -121.044808 316 10046ft 165kts
15-Aug-19 17:19 36.981732 -121.083763 316 10039ft 164kts
15-Aug-19 17:20 37.015288 -121.122094 315 10033ft 163kts
15-Aug-19 17:21 37.048465 -121.160606 315 10033ft 163kts
15-Aug-19 17:22 37.081941 -121.198794 315 10039ft 163kts
15-Aug-19 17:23 37.115426 -121.237818 316 10031ft 165kts
15-Aug-19 17:24 37.149384 -121.277098 315 10025ft 166kts
15-Aug-19 17:25 37.183150 -121.316533 315 10015ft 166kts
15-Aug-19 17:26 37.218565 -121.357362 315 9619ft 176kts
15-Aug-19 17:27 37.254533 -121.399186 316 9223ft 176kts
15-Aug-19 17:28 37.290429 -121.440485 315 8832ft 175kts
15-Aug-19 17:29 37.326053 -121.481809 315 8451ft 173kts
15-Aug-19 17:30 37.361312 -121.523011 315 8064ft 173kts
15-Aug-19 17:31 37.396494 -121.564108 315 7678ft 171kts
15-Aug-19 17:32 37.431090 -121.604953 315 7304ft 170kts
15-Aug-19 17:33 37.465183 -121.646020 313 6954ft 168kts
15-Aug-19 17:34 37.498645 -121.687170 313 6615ft 168kts
15-Aug-19 17:35 37.532221 -121.728026 313 6277ft 167kts
15-Aug-19 17:36 37.565790 -121.768638 313 5942ft 167kts
15-Aug-19 17:37 37.599355 -121.809016 313 5611ft 167kts
15-Aug-19 17:38 37.615497 -121.861494 285 5238ft 155kts
15-Aug-19 17:39 37.629123 -121.908751 288 4370ft 139kts
15-Aug-19 17:40 37.643362 -121.953303 290 3470ft 135kts
15-Aug-19 17:41 37.656984 -121.995275 290 2488ft 101kts
15-Aug-19 17:42 37.666254 -122.023937 290 2454ft 94kts
15-Aug-19 17:43 37.676522 -122.055460 291 2071ft 95kts
15-Aug-19 17:44 37.688054 -122.091000 291 1490ft 99kts
15-Aug-19 17:45 37.697282 -122.119488 292 1406ft 77kts
15-Aug-19 17:46 37.705242 -122.144044 292 1170ft 78kts
15-Aug-19 17:47 37.713909 -122.170845 292 665ft 88kts
15-Aug-19 17:48 37.722707 -122.198117 293 161ft 76kts
15-Aug-19 17:49 37.727860 -122.213802 311 10ft 10kts
15-Aug-19 17:50 37.730108 -122.214902 314 10ft 13kts

Navigation Log

Ident Type
Flight plan parsing failed, navigation log unavailable